Cullen, New York
Current Conditions -  °F | °C
As of 11:22 AM on Saturday 25 Oct 2014 (Local Time) from KRME Reporting Station
Overcast Overcast  
Wind Chill: 51°   Ceiling: 2100
Heat Index: 51°   Visibility: 8mi
Dew Point: 46°   Wind: 5mph
Humidity: 83%   Direction: 120°ESE
Pressure: 29.77"   Gusts: NA
Location:  42.8523°N, 74.9958°W
Report Text: KRME 251522Z 12004KT 8SM BKN021 OVC040 11/08 A2977 RMK AO2 T01060078
Loading
Personal Weather Stations






























Interactive Weather Map
Tropical Storm Tracking
New forecast layout! Learn more

10-Day Weather Forecast

Advertisements
Track Severe Weather on mobile